Time;durP1;ratioP1;P1;durP2;ratioP2;P2;SDS_P1;SDS_P2;PMS_P1;PMS_P2;Temp;Humidity;BMP_temperature;BMP_pressure;BME280_temperature;BME280_humidity;BME280_pressure;Samples;Min_cycle;Max_cycle;Signal;HPM_P1;HPM_P2
2023/04/06 00:01:37;;;;;;;10.65;5.53;;;6.00;99.90;;;;;;5101085;28;20036;-79
2023/04/06 00:04:03;;;;;;;11.93;6.20;;;6.10;99.90;;;;;;5100688;28;20060;-79
2023/04/06 00:06:29;;;;;;;8.93;5.57;;;6.20;99.90;;;;;;5100648;28;20333;-79
2023/04/06 00:08:55;;;;;;;9.80;6.35;;;6.20;99.90;;;;;;5099883;28;20440;-79
2023/04/06 00:11:21;;;;;;;12.48;6.00;;;6.10;99.90;;;;;;5100504;28;20052;-80
2023/04/06 00:13:47;;;;;;;10.52;6.38;;;6.00;99.90;;;;;;5100580;28;20073;-79
2023/04/06 00:16:13;;;;;;;14.02;6.50;;;6.00;99.90;;;;;;5100620;28;20046;-79
2023/04/06 00:18:39;;;;;;;13.45;6.32;;;6.00;99.90;;;;;;5100708;28;20420;-79
2023/04/06 00:21:05;;;;;;;12.32;6.07;;;6.00;99.90;;;;;;5100726;28;20044;-79
2023/04/06 00:23:31;;;;;;;10.90;5.97;;;6.00;99.90;;;;;;5100064;28;20478;-79
2023/04/06 00:25:57;;;;;;;12.10;6.40;;;6.00;99.90;;;;;;5100622;28;20036;-79
2023/04/06 00:28:25;;;;;;;9.85;5.75;;;6.10;99.90;;;;;;5100747;28;20048;-79
2023/04/06 00:30:52;;;;;;;12.82;7.45;;;6.10;99.90;;;;;;5100483;28;20044;-79
2023/04/06 00:33:22;;;;;;;10.93;6.20;;;6.10;99.90;;;;;;5083944;28;20036;-79
2023/04/06 00:35:48;;;;;;;11.20;6.75;;;6.00;99.90;;;;;;5102122;28;20044;-78
2023/04/06 00:38:14;;;;;;;12.48;6.30;;;6.00;99.90;;;;;;5101899;28;20429;-79
2023/04/06 00:40:41;;;;;;;12.10;6.53;;;6.00;99.90;;;;;;5100150;28;20028;-78
2023/04/06 00:43:08;;;;;;;15.25;7.10;;;5.90;99.90;;;;;;5100259;28;20047;-78
2023/04/06 00:45:34;;;;;;;11.48;6.75;;;5.90;99.90;;;;;;5099657;28;20090;-79
2023/04/06 00:48:01;;;;;;;11.52;6.57;;;6.00;99.90;;;;;;5099943;28;20040;-79
2023/04/06 00:50:27;;;;;;;11.50;6.20;;;6.00;99.90;;;;;;5100056;28;20059;-79
2023/04/06 00:52:54;;;;;;;11.77;6.30;;;5.90;99.90;;;;;;5099447;28;20417;-79
2023/04/06 00:55:20;;;;;;;10.45;5.55;;;5.90;99.90;;;;;;5099330;28;20098;-79
2023/04/06 00:57:46;;;;;;;12.18;6.63;;;5.90;99.90;;;;;;5099193;28;20383;-79
2023/04/06 01:00:12;;;;;;;10.73;6.25;;;6.00;99.90;;;;;;5098928;28;20032;-79
2023/04/06 01:02:38;;;;;;;14.48;6.20;;;5.90;99.90;;;;;;5099375;28;20065;-79
2023/04/06 01:05:04;;;;;;;11.43;7.00;;;5.80;99.90;;;;;;5099498;28;20115;-79
2023/04/06 01:07:30;;;;;;;12.15;6.22;;;5.80;99.90;;;;;;5099114;28;20044;-79
2023/04/06 01:09:56;;;;;;;10.88;6.57;;;5.80;99.90;;;;;;5098808;28;20066;-79
2023/04/06 01:12:22;;;;;;;11.80;6.93;;;5.80;99.90;;;;;;5099145;28;20299;-79
2023/04/06 01:14:48;;;;;;;12.02;6.80;;;5.80;99.90;;;;;;5098858;28;20032;-80
2023/04/06 01:17:14;;;;;;;10.70;6.22;;;5.80;99.90;;;;;;5098088;28;20043;-80
2023/04/06 01:19:44;;;;;;;10.27;6.60;;;5.70;99.90;;;;;;5099073;28;20046;-79
2023/04/06 01:22:17;;;;;;;11.73;6.68;;;5.70;99.90;;;;;;5081845;28;20101;-79
2023/04/06 01:24:42;;;;;;;11.30;6.40;;;5.70;99.90;;;;;;5099923;28;20083;-80
2023/04/06 01:27:08;;;;;;;10.10;6.68;;;5.60;99.90;;;;;;5099345;28;20040;-80
2023/04/06 01:29:34;;;;;;;14.27;6.32;;;5.60;99.90;;;;;;5098781;28;20119;-79
2023/04/06 01:32:00;;;;;;;13.20;6.97;;;5.60;99.90;;;;;;5098340;28;20072;-80
2023/04/06 01:34:26;;;;;;;12.40;6.60;;;5.60;99.90;;;;;;5098230;28;20050;-79
2023/04/06 01:36:51;;;;;;;12.13;6.50;;;5.50;99.90;;;;;;5098596;28;20032;-80
2023/04/06 01:39:17;;;;;;;13.80;6.90;;;5.50;99.90;;;;;;5097372;28;20032;-79
2023/04/06 01:41:43;;;;;;;12.23;6.65;;;5.60;99.90;;;;;;5097696;28;20040;-79
2023/04/06 01:44:09;;;;;;;11.40;6.68;;;5.50;99.90;;;;;;5098586;28;20036;-79
2023/04/06 01:46:35;;;;;;;13.23;7.18;;;5.50;99.90;;;;;;5098343;28;20046;-79
2023/04/06 01:49:00;;;;;;;12.18;6.90;;;5.50;99.90;;;;;;5099122;28;20048;-79
2023/04/06 01:51:26;;;;;;;13.38;7.13;;;5.50;99.90;;;;;;5099002;28;20046;-80
2023/04/06 01:53:52;;;;;;;10.50;6.45;;;5.50;99.90;;;;;;5098424;28;20036;-80
2023/04/06 01:56:18;;;;;;;13.85;7.47;;;5.50;99.90;;;;;;5097876;28;20070;-80
2023/04/06 01:58:43;;;;;;;14.48;7.38;;;5.50;99.90;;;;;;5098426;28;20041;-80
2023/04/06 02:01:09;;;;;;;17.55;7.40;;;5.50;99.90;;;;;;5098692;28;20062;-80
2023/04/06 02:03:35;;;;;;;11.40;6.65;;;5.50;99.90;;;;;;5098413;28;20039;-80
2023/04/06 02:06:00;;;;;;;13.77;6.68;;;5.50;99.90;;;;;;5098302;28;20079;-80
2023/04/06 02:08:26;;;;;;;13.63;7.55;;;5.40;99.90;;;;;;5098141;28;20048;-80
2023/04/06 02:10:52;;;;;;;13.60;7.50;;;5.50;99.90;;;;;;5097941;28;20044;-80
2023/04/06 02:13:18;;;;;;;11.07;7.18;;;5.30;99.90;;;;;;5098371;28;20040;-80
2023/04/06 02:15:43;;;;;;;18.02;7.38;;;5.30;99.90;;;;;;5098143;28;20126;-80
2023/04/06 02:18:09;;;;;;;12.23;6.97;;;5.30;99.90;;;;;;5097843;28;20071;-80
2023/04/06 02:20:35;;;;;;;14.60;8.05;;;5.20;99.90;;;;;;5098131;28;20380;-80
2023/04/06 02:23:01;;;;;;;15.25;7.95;;;5.20;99.90;;;;;;5098092;28;20036;-79
2023/04/06 02:25:27;;;;;;;14.63;7.90;;;5.10;99.90;;;;;;5097953;28;20113;-80
2023/04/06 02:27:53;;;;;;;13.38;7.63;;;5.20;99.90;;;;;;5099419;28;20094;-80
2023/04/06 02:30:19;;;;;;;14.40;8.50;;;5.20;99.90;;;;;;5102260;28;20028;-79
2023/04/06 02:32:45;;;;;;;13.35;7.72;;;5.10;99.90;;;;;;5102255;28;20463;-79
2023/04/06 02:35:10;;;;;;;14.98;8.25;;;5.10;99.90;;;;;;5102503;28;20046;-80
2023/04/06 02:37:36;;;;;;;16.40;8.27;;;5.00;99.90;;;;;;5101923;28;20051;-80
2023/04/06 02:40:02;;;;;;;16.20;8.10;;;5.00;99.90;;;;;;5101585;28;20366;-79
2023/04/06 02:42:28;;;;;;;14.30;8.00;;;5.00;99.90;;;;;;5101852;28;20314;-79
2023/04/06 02:44:53;;;;;;;12.48;7.63;;;5.10;99.90;;;;;;5101834;28;20044;-79
2023/04/06 02:47:19;;;;;;;13.55;7.90;;;5.10;99.90;;;;;;5101382;28;20380;-79
2023/04/06 02:49:45;;;;;;;16.77;8.82;;;5.10;99.90;;;;;;5101005;28;20383;-79
2023/04/06 02:52:11;;;;;;;16.38;8.45;;;5.10;99.90;;;;;;5101261;28;20070;-79
2023/04/06 02:54:37;;;;;;;15.18;8.50;;;5.10;99.90;;;;;;5100562;28;20032;-80
2023/04/06 02:57:02;;;;;;;15.95;8.68;;;5.00;99.90;;;;;;5100393;28;20060;-80
2023/04/06 02:59:28;;;;;;;12.52;7.80;;;5.00;99.90;;;;;;5100690;28;20048;-80
2023/04/06 03:01:54;;;;;;;15.68;7.97;;;5.00;99.90;;;;;;5101263;28;20040;-80
2023/04/06 03:04:21;;;;;;;15.15;8.55;;;5.10;99.90;;;;;;5099618;28;20044;-80
2023/04/06 03:06:47;;;;;;;14.63;8.65;;;5.10;99.90;;;;;;5100649;28;20048;-80
2023/04/06 03:09:14;;;;;;;12.32;7.63;;;5.00;99.90;;;;;;5100445;28;20047;-79
2023/04/06 03:11:40;;;;;;;15.70;8.75;;;5.00;99.90;;;;;;5099921;28;20043;-80
2023/04/06 03:14:05;;;;;;;18.55;8.65;;;4.80;99.90;;;;;;5100864;28;20043;-80
2023/04/06 03:16:31;;;;;;;15.65;7.93;;;4.80;99.90;;;;;;5100619;28;20396;-80
2023/04/06 03:18:57;;;;;;;14.75;8.38;;;4.80;99.90;;;;;;5109344;28;20047;-80
2023/04/06 03:21:22;;;;;;;13.32;8.23;;;4.70;99.90;;;;;;5111726;28;20047;-80
2023/04/06 03:23:50;;;;;;;15.65;8.48;;;4.70;99.90;;;;;;5105386;28;20066;-80
2023/04/06 03:26:16;;;;;;;15.00;7.85;;;4.80;99.90;;;;;;5101359;28;20130;-80
2023/04/06 03:28:42;;;;;;;13.63;7.90;;;4.70;99.90;;;;;;5100454;28;20051;-80
2023/04/06 03:31:08;;;;;;;14.13;8.35;;;4.70;99.90;;;;;;5099478;28;20040;-80
2023/04/06 03:33:33;;;;;;;13.43;7.30;;;4.70;99.90;;;;;;5100984;28;20047;-80
2023/04/06 03:35:59;;;;;;;12.45;7.22;;;4.70;99.90;;;;;;5100536;28;20124;-80
2023/04/06 03:38:25;;;;;;;15.30;7.70;;;4.70;99.90;;;;;;5100577;28;20032;-80
2023/04/06 03:40:50;;;;;;;14.55;7.75;;;4.80;99.90;;;;;;5099433;28;20371;-80
2023/04/06 03:43:16;;;;;;;14.48;7.88;;;4.80;99.90;;;;;;5100888;28;20039;-79
2023/04/06 03:45:42;;;;;;;10.15;6.65;;;4.80;99.90;;;;;;5100654;28;20044;-79
2023/04/06 03:48:07;;;;;;;14.07;6.97;;;4.80;99.90;;;;;;5100131;28;20048;-79
2023/04/06 03:50:33;;;;;;;14.30;7.25;;;4.80;99.90;;;;;;5101001;28;20333;-79
2023/04/06 03:52:59;;;;;;;13.82;7.03;;;4.70;99.90;;;;;;5100723;28;20535;-80
2023/04/06 03:55:24;;;;;;;11.73;7.07;;;4.60;99.90;;;;;;5100533;28;20076;-80
2023/04/06 03:57:50;;;;;;;14.82;7.13;;;4.60;99.90;;;;;;5100078;28;20076;-80
2023/04/06 04:00:16;;;;;;;14.88;7.28;;;4.60;99.90;;;;;;5100730;28;20146;-80
2023/04/06 04:02:41;;;;;;;13.50;7.93;;;4.50;99.90;;;;;;5100429;28;20321;-79
2023/04/06 04:05:07;;;;;;;15.30;7.55;;;4.50;99.90;;;;;;5100535;28;20051;-79
2023/04/06 04:07:33;;;;;;;11.70;7.03;;;4.40;99.90;;;;;;5100412;28;20133;-79
2023/04/06 04:09:59;;;;;;;17.02;8.05;;;4.40;99.90;;;;;;5100138;28;20036;-79
2023/04/06 04:12:25;;;;;;;13.10;7.53;;;4.40;99.90;;;;;;5099122;28;20074;-79
2023/04/06 04:14:50;;;;;;;15.50;8.02;;;4.30;99.90;;;;;;5100242;28;20123;-79
2023/04/06 04:17:16;;;;;;;16.15;7.65;;;4.40;99.90;;;;;;5100024;28;20036;-79
2023/04/06 04:19:42;;;;;;;17.17;8.18;;;4.40;99.90;;;;;;5099879;28;20071;-79
2023/04/06 04:22:07;;;;;;;15.05;8.38;;;4.40;99.90;;;;;;5100151;28;20071;-79
2023/04/06 04:24:33;;;;;;;12.85;7.28;;;4.30;99.90;;;;;;5099775;28;20490;-79
2023/04/06 04:27:00;;;;;;;14.25;7.88;;;4.30;99.90;;;;;;5100269;28;20048;-79
2023/04/06 04:29:26;;;;;;;15.35;7.28;;;4.30;99.90;;;;;;5100220;28;20100;-79
2023/04/06 04:31:52;;;;;;;12.63;7.85;;;4.30;99.90;;;;;;5099585;28;20063;-79
2023/04/06 04:34:23;;;;;;;13.90;7.80;;;4.20;99.90;;;;;;5099339;28;20051;-79
2023/04/06 04:36:49;;;;;;;15.10;7.50;;;4.10;99.90;;;;;;5099336;28;20047;-79
2023/04/06 04:39:15;;;;;;;11.30;7.53;;;4.10;99.90;;;;;;5099032;28;20452;-79
2023/04/06 04:41:40;;;;;;;18.15;7.28;;;4.20;99.90;;;;;;5099251;28;20040;-79
2023/04/06 04:44:06;;;;;;;15.63;7.40;;;4.30;99.90;;;;;;5098903;28;20036;-78
2023/04/06 04:46:32;;;;;;;12.20;6.95;;;4.10;99.90;;;;;;5099276;28;20036;-79
2023/04/06 04:48:57;;;;;;;13.10;7.38;;;4.10;99.90;;;;;;5099375;28;20036;-78
2023/04/06 04:51:24;;;;;;;18.65;7.03;;;3.90;99.90;;;;;;5098915;28;20040;-78
2023/04/06 04:53:50;;;;;;;10.25;6.22;;;4.10;99.90;;;;;;5098935;28;20050;-79
2023/04/06 04:56:16;;;;;;;19.08;7.70;;;4.00;99.90;;;;;;5098529;28;20131;-79
2023/04/06 04:58:41;;;;;;;11.77;6.55;;;4.10;99.90;;;;;;5099389;28;20040;-80
2023/04/06 05:01:08;;;;;;;13.65;7.05;;;4.00;99.90;;;;;;5099463;28;20035;-79
2023/04/06 05:03:34;;;;;;;13.85;7.32;;;4.10;99.90;;;;;;5099329;28;20028;-79
2023/04/06 05:05:59;;;;;;;11.77;7.13;;;4.20;99.90;;;;;;5098608;28;20551;-79
2023/04/06 05:08:25;;;;;;;15.77;7.10;;;4.20;99.90;;;;;;5098293;28;20040;-79
2023/04/06 05:10:51;;;;;;;14.25;7.28;;;4.30;99.90;;;;;;5098273;28;20459;-79
2023/04/06 05:13:16;;;;;;;14.02;6.90;;;4.20;99.90;;;;;;5101106;28;20032;-79
2023/04/06 05:15:42;;;;;;;13.35;6.30;;;4.30;99.90;;;;;;5100277;28;20047;-79
2023/04/06 05:18:08;;;;;;;13.90;6.90;;;4.20;99.90;;;;;;5106769;28;20062;-79
2023/04/06 05:20:35;;;;;;;13.27;6.15;;;4.20;99.90;;;;;;5098082;28;20090;-79
2023/04/06 05:23:01;;;;;;;13.20;6.70;;;4.10;99.90;;;;;;5098348;28;20028;-79
2023/04/06 05:25:27;;;;;;;12.18;6.32;;;4.10;99.90;;;;;;5098367;28;20086;-79
2023/04/06 05:27:53;;;;;;;11.07;6.85;;;4.20;99.90;;;;;;5098998;28;20368;-79
2023/04/06 05:30:19;;;;;;;12.20;6.88;;;4.20;99.90;;;;;;5098812;28;20036;-79
2023/04/06 05:32:45;;;;;;;12.98;6.97;;;4.20;99.90;;;;;;5098481;28;20123;-79
2023/04/06 05:35:11;;;;;;;10.77;6.88;;;4.10;99.90;;;;;;5098905;28;20048;-79
2023/04/06 05:37:38;;;;;;;14.05;6.47;;;4.30;99.90;;;;;;5098427;28;20093;-79
2023/04/06 05:40:06;;;;;;;12.68;6.70;;;4.30;99.90;;;;;;5098692;28;20074;-79
2023/04/06 05:42:39;;;;;;;13.88;6.82;;;4.30;99.90;;;;;;5098653;28;20036;-78
2023/04/06 05:45:06;;;;;;;12.07;6.18;;;4.40;99.90;;;;;;5098569;28;20040;-78
2023/04/06 05:47:32;;;;;;;9.82;6.45;;;4.50;99.90;;;;;;5097594;28;20125;-78
2023/04/06 05:49:58;;;;;;;9.80;6.25;;;4.60;99.90;;;;;;5098985;28;20047;-78
2023/04/06 05:52:23;;;;;;;12.85;7.13;;;4.70;99.90;;;;;;5098934;28;20044;-78
2023/04/06 05:54:49;;;;;;;10.52;6.50;;;4.70;99.90;;;;;;5098442;28;20039;-78
2023/04/06 05:57:16;;;;;;;13.68;7.20;;;4.70;99.90;;;;;;5098513;28;20052;-79
2023/04/06 05:59:42;;;;;;;11.25;6.38;;;4.80;99.90;;;;;;5098708;28;20075;-78
2023/04/06 06:02:08;;;;;;;12.63;6.68;;;4.70;99.90;;;;;;5097642;28;20036;-78
2023/04/06 06:04:33;;;;;;;12.88;7.18;;;4.70;99.90;;;;;;5098657;28;20032;-78
2023/04/06 06:07:00;;;;;;;12.32;6.82;;;4.70;99.90;;;;;;5098409;28;20337;-78
2023/04/06 06:09:25;;;;;;;13.93;7.05;;;4.70;99.90;;;;;;5097504;28;20047;-78
2023/04/06 06:11:51;;;;;;;10.63;6.60;;;4.80;99.90;;;;;;5097147;28;20032;-78
2023/04/06 06:14:17;;;;;;;11.45;6.93;;;5.00;99.90;;;;;;5097751;28;20110;-78
2023/04/06 06:16:43;;;;;;;15.75;7.28;;;4.90;99.90;;;;;;5097291;28;20341;-78
2023/04/06 06:19:09;;;;;;;16.10;7.57;;;5.00;99.90;;;;;;5097542;28;20081;-78
2023/04/06 06:21:34;;;;;;;14.98;7.57;;;4.80;99.90;;;;;;5094727;28;20036;-78
2023/04/06 06:24:01;;;;;;;10.25;6.50;;;4.80;99.90;;;;;;5097051;28;20414;-78
2023/04/06 06:26:26;;;;;;;16.75;7.53;;;4.90;99.90;;;;;;5097339;28;20032;-78
2023/04/06 06:28:52;;;;;;;15.82;6.47;;;4.90;99.90;;;;;;5096156;28;20036;-78
2023/04/06 06:31:22;;;;;;;11.88;6.95;;;4.90;99.90;;;;;;5096616;28;20044;-78
2023/04/06 06:33:50;;;;;;;8.80;5.72;;;5.10;99.90;;;;;;5096247;28;20097;-81
2023/04/06 06:36:17;;;;;;;14.60;8.00;;;5.10;99.90;;;;;;5097089;28;20093;-76
2023/04/06 06:38:42;;;;;;;11.25;7.25;;;5.60;99.90;;;;;;5096646;28;20157;-67
2023/04/06 06:41:08;;;;;;;12.23;7.47;;;5.50;99.90;;;;;;5096271;28;20420;-68
2023/04/06 06:43:34;;;;;;;13.82;7.03;;;5.50;99.90;;;;;;5096189;28;20040;-69
2023/04/06 06:46:00;;;;;;;12.23;7.47;;;5.40;99.90;;;;;;5095399;28;20085;-69
2023/04/06 06:48:25;;;;;;;12.25;7.03;;;5.40;99.90;;;;;;5095810;28;20433;-69
2023/04/06 06:50:51;;;;;;;14.20;8.20;;;5.40;99.90;;;;;;5096321;28;20044;-69
2023/04/06 06:53:17;;;;;;;13.88;7.30;;;5.50;99.90;;;;;;5095275;28;20036;-69
2023/04/06 06:55:44;;;;;;;10.98;6.93;;;5.40;99.90;;;;;;5078585;28;20414;-69
2023/04/06 06:58:10;;;;;;;14.82;7.65;;;5.50;99.90;;;;;;5096198;28;20429;-70
2023/04/06 07:00:35;;;;;;;14.88;7.68;;;5.60;99.90;;;;;;5096546;28;20126;-70
2023/04/06 07:03:01;;;;;;;12.43;7.38;;;5.60;99.90;;;;;;5096302;28;20043;-71
2023/04/06 07:05:27;;;;;;;16.48;7.50;;;5.70;99.90;;;;;;5096436;28;20047;-71
2023/04/06 07:07:53;;;;;;;14.18;7.13;;;6.00;99.90;;;;;;5096379;28;20097;-70
2023/04/06 07:10:19;;;;;;;10.68;7.30;;;6.00;99.90;;;;;;5096049;28;20125;-70
2023/04/06 07:12:45;;;;;;;13.18;7.28;;;6.10;99.90;;;;;;5096313;28;20092;-70
2023/04/06 07:15:11;;;;;;;15.23;8.15;;;6.30;99.90;;;;;;5098062;28;20043;-70
2023/04/06 07:17:37;;;;;;;13.38;8.15;;;6.40;99.90;;;;;;5099647;28;20032;-69
2023/04/06 07:20:03;;;;;;;16.70;8.18;;;6.60;99.90;;;;;;5099960;28;20043;-70
2023/04/06 07:22:29;;;;;;;14.40;7.65;;;6.60;99.90;;;;;;5099975;28;20169;-70
2023/04/06 07:24:54;;;;;;;13.50;8.05;;;6.70;99.90;;;;;;5099869;28;20040;-70
2023/04/06 07:27:20;;;;;;;14.25;8.10;;;6.60;99.90;;;;;;5099520;28;20040;-68
2023/04/06 07:29:46;;;;;;;15.00;8.43;;;6.60;99.90;;;;;;5099715;28;20074;-69
2023/04/06 07:32:11;;;;;;;14.00;8.25;;;6.80;99.90;;;;;;5099475;28;20387;-68
2023/04/06 07:34:37;;;;;;;12.57;7.93;;;6.90;99.90;;;;;;5099710;28;20039;-68
2023/04/06 07:37:03;;;;;;;12.43;7.55;;;7.00;99.90;;;;;;5098223;28;20032;-69
2023/04/06 07:39:29;;;;;;;17.98;8.88;;;7.00;99.90;;;;;;5099150;28;20040;-69
2023/04/06 07:41:55;;;;;;;14.18;8.10;;;7.20;99.90;;;;;;5098481;28;20044;-69
2023/04/06 07:44:20;;;;;;;13.73;7.50;;;7.20;99.90;;;;;;5099420;28;20093;-69
2023/04/06 07:46:46;;;;;;;14.65;8.30;;;7.30;99.90;;;;;;5099438;28;20088;-69
2023/04/06 07:49:27;;;;;;;13.52;9.18;;;7.30;99.90;;;;;;5099394;28;20046;-68
2023/04/06 07:52:11;;;;;;;15.93;9.15;;;7.40;99.90;;;;;;5099107;28;20040;-70
2023/04/06 07:54:41;;;;;;;14.38;8.57;;;7.20;99.90;;;;;;5099236;28;20039;-69
2023/04/06 07:57:07;;;;;;;13.15;8.50;;;7.00;99.90;;;;;;5098803;28;20104;-69
2023/04/06 07:59:33;;;;;;;15.18;8.63;;;7.30;99.90;;;;;;5099150;28;20114;-70
2023/04/06 08:01:58;;;;;;;15.07;8.85;;;7.40;99.90;;;;;;5081192;28;20417;-69
2023/04/06 08:04:24;;;;;;;14.32;8.70;;;7.60;99.90;;;;;;5098427;28;20165;-69
2023/04/06 08:06:50;;;;;;;19.13;8.85;;;7.80;99.90;;;;;;5082222;28;20040;-69
2023/04/06 08:09:16;;;;;;;17.77;9.30;;;7.90;99.90;;;;;;5098388;28;20479;-70
2023/04/06 08:11:41;;;;;;;15.82;9.13;;;8.10;99.90;;;;;;5064742;28;20096;-69
2023/04/06 08:14:07;;;;;;;17.00;9.23;;;8.00;99.90;;;;;;5098680;28;20417;-70
2023/04/06 08:16:33;;;;;;;17.70;9.05;;;8.30;99.90;;;;;;5098746;28;20044;-68
2023/04/06 08:18:59;;;;;;;16.80;8.50;;;8.30;99.90;;;;;;5081092;28;20383;-69
2023/04/06 08:21:24;;;;;;;14.85;9.40;;;8.40;99.90;;;;;;5097564;28;20036;-69
2023/04/06 08:23:50;;;;;;;17.30;9.65;;;8.50;99.90;;;;;;5099238;28;20043;-69
2023/04/06 08:26:16;;;;;;;18.55;9.20;;;8.70;99.90;;;;;;5098262;28;20101;-69
2023/04/06 08:28:41;;;;;;;16.90;9.25;;;8.70;99.90;;;;;;5114700;28;20135;-70
2023/04/06 08:31:07;;;;;;;19.25;9.80;;;8.90;99.90;;;;;;5114508;28;20101;-69
2023/04/06 08:33:38;;;;;;;17.80;9.55;;;8.90;99.90;;;;;;5098523;28;20043;-69
2023/04/06 08:36:09;;;;;;;14.38;8.82;;;9.10;99.90;;;;;;5098277;28;20126;-69
2023/04/06 08:38:35;;;;;;;14.57;9.18;;;9.20;99.90;;;;;;5097122;28;20075;-69
2023/04/06 08:41:10;;;;;;;17.73;9.68;;;9.40;99.90;;;;;;5080012;28;20486;-69
2023/04/06 08:43:42;;;;;;;19.17;9.02;;;9.50;99.90;;;;;;5080237;28;20071;-69
2023/04/06 08:46:09;;;;;;;16.95;9.20;;;9.70;99.90;;;;;;5097593;28;20430;-70
2023/04/06 08:48:35;;;;;;;14.77;8.60;;;9.70;99.90;;;;;;5098210;28;20051;-69
2023/04/06 08:51:02;;;;;;;16.88;8.68;;;9.90;99.90;;;;;;5098218;28;20115;-69
2023/04/06 08:53:28;;;;;;;16.08;8.75;;;10.10;99.90;;;;;;5098077;28;20040;-68
2023/04/06 08:55:56;;;;;;;14.68;8.98;;;10.00;99.90;;;;;;5097865;28;20468;-68
2023/04/06 08:58:22;;;;;;;13.18;8.65;;;10.00;99.90;;;;;;5097108;28;20048;-69
2023/04/06 09:00:49;;;;;;;14.88;9.45;;;10.20;99.90;;;;;;5098357;28;20040;-70
2023/04/06 09:03:16;;;;;;;13.30;7.78;;;10.50;99.90;;;;;;5097946;28;20105;-69
2023/04/06 09:05:43;;;;;;;17.13;8.27;;;10.60;99.90;;;;;;5096623;28;20434;-69
2023/04/06 09:08:09;;;;;;;13.48;8.15;;;10.80;99.90;;;;;;5096869;28;20085;-69
2023/04/06 09:10:35;;;;;;;13.00;8.38;;;10.80;99.90;;;;;;5097581;28;20032;-70
2023/04/06 09:13:05;;;;;;;13.90;8.50;;;10.90;99.90;;;;;;5097520;28;20075;-69
2023/04/06 09:15:31;;;;;;;12.82;8.60;;;10.80;99.90;;;;;;5097420;28;20070;-69
2023/04/06 09:17:57;;;;;;;13.45;8.40;;;11.00;99.90;;;;;;5097665;28;20043;-68
2023/04/06 09:20:31;;;;;;;15.02;9.40;;;11.20;99.90;;;;;;5097638;28;20444;-70
2023/04/06 09:22:57;;;;;;;14.68;8.30;;;11.30;99.90;;;;;;5097316;28;20047;-69
2023/04/06 09:25:26;;;;;;;17.50;8.73;;;11.50;99.90;;;;;;5091801;28;20033;-71
2023/04/06 09:28:06;;;;;;;14.43;8.50;;;11.50;99.90;;;;;;5085516;28;20047;-71
2023/04/06 09:30:35;;;;;;;13.18;8.18;;;11.50;99.90;;;;;;5097047;28;20105;-68
2023/04/06 09:33:01;;;;;;;16.50;8.80;;;11.50;99.90;;;;;;5095703;28;20060;-71
2023/04/06 09:35:29;;;;;;;13.50;8.23;;;11.30;99.90;;;;;;5090988;28;20047;-72
2023/04/06 09:37:55;;;;;;;14.57;8.15;;;11.40;99.90;;;;;;5080421;28;20103;-72
2023/04/06 09:40:22;;;;;;;15.73;8.23;;;11.40;99.90;;;;;;5078238;28;20066;-71
2023/04/06 09:42:52;;;;;;;13.77;7.88;;;11.50;99.90;;;;;;5096141;28;20044;-71
2023/04/06 09:45:18;;;;;;;15.02;8.73;;;11.70;99.90;;;;;;5097020;28;20063;-72
2023/04/06 09:47:45;;;;;;;15.40;8.30;;;11.90;99.90;;;;;;5093912;28;20036;-72
2023/04/06 09:50:16;;;;;;;15.02;9.40;;;12.00;99.90;;;;;;5093509;28;20133;-74
2023/04/06 09:52:50;;;;;;;15.20;8.85;;;12.10;99.90;;;;;;5090225;28;20032;-71
2023/04/06 09:55:25;;;;;;;14.73;9.20;;;12.10;99.90;;;;;;5075118;28;20052;-68
2023/04/06 09:58:09;;;;;;;14.63;9.20;;;12.20;99.90;;;;;;5076406;28;20074;-71
2023/04/06 10:00:48;;;;;;;15.18;9.07;;;12.20;99.90;;;;;;5077376;28;20044;-70
2023/04/06 10:03:19;;;;;;;16.30;9.85;;;12.10;99.90;;;;;;5076512;28;20037;-71
2023/04/06 10:06:04;;;;;;;16.30;10.02;;;12.10;99.90;;;;;;5077264;28;20036;-70
2023/04/06 10:08:34;;;;;;;16.00;9.88;;;12.20;99.90;;;;;;5058800;28;20056;-70
2023/04/06 10:11:01;;;;;;;15.25;9.82;;;12.10;99.90;;;;;;5075675;28;20138;-69
2023/04/06 10:13:27;;;;;;;16.60;9.30;;;12.20;99.90;;;;;;5076721;28;20094;-70
2023/04/06 10:15:54;;;;;;;17.05;10.57;;;12.20;99.90;;;;;;5076598;28;20040;-71
2023/04/06 10:18:21;;;;;;;24.63;11.07;;;12.30;99.90;;;;;;5076342;28;20457;-70
2023/04/06 10:21:31;;;;;;;17.20;10.40;;;12.30;99.90;;;;;;5075400;28;20437;-70
2023/04/06 10:24:02;;;;;;;18.15;10.55;;;12.30;99.90;;;;;;4998365;28;20101;-71
2023/04/06 10:26:28;;;;;;;17.35;10.88;;;12.50;99.90;;;;;;5014257;28;20077;-71
2023/04/06 10:28:54;;;;;;;16.77;10.43;;;12.80;99.90;;;;;;5045225;28;20138;-70
2023/04/06 10:31:27;;;;;;;16.65;9.90;;;12.80;99.90;;;;;;5096497;28;20048;-70
2023/04/06 10:33:57;;;;;;;17.85;10.75;;;12.80;99.90;;;;;;5095720;28;20042;-68
2023/04/06 10:36:27;;;;;;;20.17;12.20;;;12.90;99.90;;;;;;5096704;28;20069;-69
2023/04/06 10:38:58;;;;;;;20.33;11.90;;;13.10;99.90;;;;;;5095874;28;20036;-69
2023/04/06 10:41:32;;;;;;;19.98;12.27;;;13.20;99.90;;;;;;5096076;28;20046;-67
2023/04/06 10:43:59;;;;;;;23.95;13.55;;;13.40;99.90;;;;;;5095381;28;20051;-69
2023/04/06 10:46:30;;;;;;;25.00;13.45;;;12.80;99.90;;;;;;5096632;28;20040;-69
2023/04/06 10:48:57;;;;;;;23.33;13.27;;;12.80;99.90;;;;;;5097110;28;20055;-69
2023/04/06 10:51:27;;;;;;;24.60;14.80;;;12.90;99.90;;;;;;5099582;28;20325;-69
2023/04/06 10:53:54;;;;;;;26.95;14.43;;;12.80;99.90;;;;;;5099532;28;20040;-69
2023/04/06 10:56:25;;;;;;;25.98;14.88;;;12.80;99.90;;;;;;5100148;28;20092;-72
2023/04/06 10:58:55;;;;;;;33.95;17.08;;;12.90;99.90;;;;;;5100366;28;20101;-69
2023/04/06 11:01:23;;;;;;;29.85;16.05;;;13.20;99.90;;;;;;5100345;28;20036;-68
2023/04/06 11:03:53;;;;;;;28.15;16.52;;;13.20;99.90;;;;;;5100313;28;20036;-69
2023/04/06 11:06:38;;;;;;;27.40;16.30;;;13.50;99.90;;;;;;5099278;28;20036;-69
2023/04/06 11:09:04;;;;;;;35.45;18.55;;;13.40;99.90;;;;;;5100754;28;20051;-68
2023/04/06 11:11:29;;;;;;;35.10;16.77;;;12.90;99.90;;;;;;5099853;28;20044;-69
2023/04/06 11:13:57;;;;;;;28.70;16.40;;;12.90;99.90;;;;;;5098781;28;20044;-69
2023/04/06 11:16:28;;;;;;;30.77;17.33;;;13.00;99.90;;;;;;5099953;28;20036;-69
2023/04/06 11:18:58;;;;;;;33.70;17.67;;;13.30;99.90;;;;;;5100326;28;20036;-69
2023/04/06 11:21:43;;;;;;;33.95;19.17;;;13.60;99.90;;;;;;5100041;28;20032;-69
2023/04/06 11:24:20;;;;;;;33.10;19.45;;;13.20;99.90;;;;;;5099814;28;20173;-69
2023/04/06 11:26:55;;;;;;;35.80;19.95;;;13.20;99.90;;;;;;5099568;28;20532;-69
2023/04/06 11:29:26;;;;;;;34.15;18.98;;;13.20;99.90;;;;;;5099821;28;20058;-69
2023/04/06 11:32:00;;;;;;;33.75;19.48;;;13.40;99.90;;;;;;5099825;28;20035;-69
2023/04/06 11:34:28;;;;;;;36.63;20.58;;;13.40;99.90;;;;;;5099797;28;20048;-69
2023/04/06 11:37:08;;;;;;;37.67;19.73;;;13.40;99.90;;;;;;5099367;28;20425;-70
2023/04/06 11:39:42;;;;;;;33.13;18.42;;;13.60;99.90;;;;;;5097952;28;20035;-71
2023/04/06 11:42:09;;;;;;;33.28;18.58;;;13.90;99.90;;;;;;5099578;28;20040;-69
2023/04/06 11:44:35;;;;;;;33.45;19.90;;;14.20;99.90;;;;;;5099580;28;20333;-69
2023/04/06 11:47:03;;;;;;;35.90;20.13;;;14.30;99.90;;;;;;5099470;28;20040;-73
2023/04/06 11:49:30;;;;;;;35.13;20.65;;;14.20;99.90;;;;;;5099249;28;20031;-70
2023/04/06 11:51:57;;;;;;;39.13;21.30;;;13.80;99.90;;;;;;5098347;28;20072;-70
2023/04/06 11:54:50;;;;;;;33.03;20.33;;;13.80;99.90;;;;;;5099370;28;20040;-69
2023/04/06 11:57:17;;;;;;;37.70;20.70;;;13.80;99.90;;;;;;5094153;28;20349;-69
2023/04/06 11:59:43;;;;;;;33.45;19.67;;;14.00;99.90;;;;;;5098936;28;20081;-69
2023/04/06 12:02:09;;;;;;;33.88;20.55;;;14.10;99.90;;;;;;5099368;28;20033;-69
2023/04/06 12:04:35;;;;;;;33.85;19.40;;;14.10;99.90;;;;;;5098091;28;20044;-69
2023/04/06 12:07:01;;;;;;;37.15;19.58;;;13.90;99.90;;;;;;5098747;28;20036;-70
2023/04/06 12:09:27;;;;;;;34.83;19.70;;;13.90;99.90;;;;;;5080676;28;20044;-70
2023/04/06 12:11:53;;;;;;;34.72;19.63;;;13.80;99.90;;;;;;5098660;28;20124;-70
2023/04/06 12:14:19;;;;;;;35.55;18.13;;;13.70;99.90;;;;;;5098617;28;20043;-69
2023/04/06 12:16:45;;;;;;;35.13;20.13;;;13.60;99.90;;;;;;5098888;28;20054;-69
2023/04/06 12:19:11;;;;;;;32.63;18.73;;;13.60;99.90;;;;;;5098844;28;20088;-69
2023/04/06 12:21:37;;;;;;;38.58;20.05;;;13.70;99.90;;;;;;5097654;28;20040;-69
2023/04/06 12:24:04;;;;;;;35.78;19.42;;;13.70;99.90;;;;;;5098751;28;20039;-69
2023/04/06 12:26:30;;;;;;;34.50;19.05;;;13.80;99.90;;;;;;5098715;28;20055;-69
2023/04/06 12:28:56;;;;;;;34.03;19.83;;;13.70;99.90;;;;;;5097350;28;20375;-69
2023/04/06 12:31:25;;;;;;;34.28;19.38;;;13.90;99.90;;;;;;5097322;28;20127;-69
2023/04/06 12:33:51;;;;;;;32.90;18.27;;;14.10;99.90;;;;;;5098585;28;20036;-69
2023/04/06 12:36:18;;;;;;;38.05;19.40;;;14.00;99.90;;;;;;5098694;28;20052;-69
2023/04/06 12:38:48;;;;;;;34.33;18.23;;;14.00;99.90;;;;;;5097151;28;20036;-70
2023/04/06 12:41:14;;;;;;;35.22;18.45;;;13.90;99.90;;;;;;5097908;28;20425;-69
2023/04/06 12:43:43;;;;;;;31.73;18.58;;;13.90;99.90;;;;;;5097200;28;20113;-70